Bondville, Illinois
Current Conditions -  °F | °C
As of 8:53 PM on Wednesday 22 Oct 2014 (Local Time) from KCMI Reporting Station
Clear Clear  
Wind Chill: 40°   Ceiling: Unl
Heat Index: 43°   Visibility: 10mi
Dew Point: 36°   Wind: 5mph
Humidity: 76%   Direction: 80°E
Pressure: 30.25"   Gusts: NA
Location:  40.11°N, 88.37°W
Report Text: KCMI 230153Z 08004KT 10SM CLR 06/02 A3025 RMK AO2 SLP248 T00610022 $
Loading
Personal Weather Stations






























Interactive Weather Map
Tropical Storm Tracking
New forecast layout! Learn more

10-Day Weather Forecast

Advertisements
Track Severe Weather on mobile